createdAt,value
2023-03-29T00:01:41.989Z,5.66
2023-03-29T00:04:10.186Z,5.69
2023-03-29T00:06:38.409Z,5.69
2023-03-29T00:09:06.081Z,5.70
2023-03-29T00:11:32.982Z,5.65
2023-03-29T00:13:59.418Z,5.64
2023-03-29T00:16:26.060Z,5.57
2023-03-29T00:18:52.584Z,5.59
2023-03-29T00:21:19.041Z,5.58
2023-03-29T00:23:45.714Z,5.49
2023-03-29T00:26:12.457Z,5.38
2023-03-29T00:28:38.934Z,5.38
2023-03-29T00:31:14.012Z,5.38
2023-03-29T00:33:41.394Z,5.43
2023-03-29T00:36:09.037Z,5.38
2023-03-29T00:38:36.180Z,5.44
2023-03-29T00:41:04.565Z,5.49
2023-03-29T00:43:31.290Z,5.51
2023-03-29T00:45:57.810Z,5.55
2023-03-29T00:48:28.944Z,5.59
2023-03-29T00:51:03.474Z,5.64
2023-03-29T00:53:33.410Z,5.54
2023-03-29T00:56:06.320Z,5.64
2023-03-29T00:58:40.380Z,5.67
2023-03-29T01:01:10.926Z,5.71
2023-03-29T01:03:46.379Z,5.71
2023-03-29T01:06:16.029Z,5.67
2023-03-29T01:08:53.579Z,5.78
2023-03-29T01:11:32.375Z,5.82
2023-03-29T01:14:03.834Z,5.84
2023-03-29T01:16:33.048Z,5.83
2023-03-29T01:19:00.401Z,5.78
2023-03-29T01:21:33.070Z,5.87
2023-03-29T01:24:09.227Z,5.89
2023-03-29T01:26:59.561Z,5.86
2023-03-29T01:29:47.809Z,5.96
2023-03-29T01:32:23.331Z,5.99
2023-03-29T01:34:57.637Z,5.97
2023-03-29T01:37:34.217Z,6.00
2023-03-29T01:40:01.221Z,5.98
2023-03-29T01:42:36.876Z,6.02
2023-03-29T01:45:12.625Z,6.06
2023-03-29T01:48:08.330Z,6.11
2023-03-29T01:50:54.297Z,6.10
2023-03-29T01:53:24.716Z,6.10
2023-03-29T01:55:58.579Z,6.08
2023-03-29T01:58:30.000Z,6.10
2023-03-29T02:00:58.088Z,6.03
2023-03-29T02:03:27.781Z,6.06
2023-03-29T02:05:56.945Z,6.08
2023-03-29T02:08:24.775Z,6.08
2023-03-29T02:10:51.909Z,6.11
2023-03-29T02:13:19.708Z,6.10
2023-03-29T02:15:47.831Z,6.11
2023-03-29T02:18:18.936Z,6.10
2023-03-29T02:20:48.826Z,6.13
2023-03-29T02:23:34.294Z,6.15
2023-03-29T02:26:03.827Z,6.16
2023-03-29T02:28:31.713Z,6.17
2023-03-29T02:31:05.202Z,6.19
2023-03-29T02:33:45.829Z,6.15
2023-03-29T02:36:24.852Z,6.19
2023-03-29T02:38:52.736Z,6.14
2023-03-29T02:41:19.933Z,6.15
2023-03-29T02:43:47.633Z,6.18
2023-03-29T02:46:15.457Z,6.18
2023-03-29T02:48:46.274Z,6.20
2023-03-29T02:51:17.421Z,6.19
2023-03-29T02:53:59.284Z,6.10
2023-03-29T02:56:25.824Z,6.05
2023-03-29T02:58:52.279Z,6.08
2023-03-29T03:01:20.537Z,6.05
2023-03-29T03:03:48.001Z,6.01
2023-03-29T03:06:15.219Z,6.02
2023-03-29T03:08:42.055Z,6.12
2023-03-29T03:11:08.565Z,6.15
2023-03-29T03:13:34.994Z,6.19
2023-03-29T03:16:01.525Z,6.19
2023-03-29T03:18:28.679Z,6.21
2023-03-29T03:20:59.289Z,6.21
2023-03-29T03:23:26.027Z,6.26
2023-03-29T03:25:52.855Z,6.28
2023-03-29T03:28:20.530Z,6.31
2023-03-29T03:30:46.981Z,6.33
2023-03-29T03:33:13.421Z,6.33
2023-03-29T03:35:39.914Z,6.36
2023-03-29T03:38:07.270Z,6.42
2023-03-29T03:40:34.281Z,6.45
2023-03-29T03:43:03.444Z,6.49
2023-03-29T03:45:30.078Z,6.53
2023-03-29T03:47:56.587Z,6.57
2023-03-29T03:50:24.330Z,6.57
2023-03-29T03:52:50.891Z,6.57
2023-03-29T03:55:17.716Z,6.52
2023-03-29T03:57:44.157Z,6.59
2023-03-29T04:00:18.618Z,6.63
2023-03-29T04:02:46.584Z,6.61
2023-03-29T04:05:13.118Z,6.46
2023-03-29T04:07:40.347Z,6.34
2023-03-29T04:10:09.016Z,6.44
2023-03-29T04:12:36.110Z,6.50
2023-03-29T04:15:03.585Z,6.51
2023-03-29T04:17:30.036Z,6.54
2023-03-29T04:19:57.483Z,6.58
2023-03-29T04:22:27.727Z,6.58
2023-03-29T04:24:55.333Z,6.60
2023-03-29T04:27:21.769Z,6.58
2023-03-29T04:29:48.904Z,6.54
2023-03-29T04:32:15.356Z,6.53
2023-03-29T04:34:41.761Z,6.57
2023-03-29T04:37:10.502Z,6.58
2023-03-29T04:39:37.653Z,6.52
2023-03-29T04:42:05.159Z,6.55
2023-03-29T04:44:34.944Z,6.53
2023-03-29T04:47:01.573Z,6.44
2023-03-29T04:49:31.119Z,6.50
2023-03-29T04:51:57.583Z,6.52
2023-03-29T04:54:24.120Z,6.57
2023-03-29T04:56:52.120Z,6.59
2023-03-29T04:59:18.810Z,6.56
2023-03-29T05:01:45.761Z,6.45
2023-03-29T05:04:23.466Z,6.48
2023-03-29T05:06:50.330Z,6.45
2023-03-29T05:09:17.063Z,6.36
2023-03-29T05:11:43.820Z,6.35
2023-03-29T05:14:11.294Z,6.31
2023-03-29T05:16:38.100Z,6.27
2023-03-29T05:19:04.752Z,6.25
2023-03-29T05:21:31.262Z,6.10
2023-03-29T05:23:58.078Z,6.21
2023-03-29T05:26:24.527Z,6.18
2023-03-29T05:28:51.498Z,6.25
2023-03-29T05:31:18.457Z,6.18
2023-03-29T05:33:45.068Z,6.23
2023-03-29T05:36:13.780Z,6.31
2023-03-29T05:38:41.423Z,6.36
2023-03-29T05:41:08.678Z,6.34
2023-03-29T05:43:35.108Z,6.41
2023-03-29T05:46:01.634Z,6.38
2023-03-29T05:48:28.804Z,6.42
2023-03-29T05:50:56.364Z,6.53
2023-03-29T05:53:25.007Z,6.60
2023-03-29T05:55:51.787Z,6.63
2023-03-29T05:58:20.191Z,6.68
2023-03-29T06:00:49.467Z,6.73
2023-03-29T06:03:21.243Z,6.71
2023-03-29T06:05:49.852Z,6.82
2023-03-29T06:08:16.791Z,6.86
2023-03-29T06:10:43.684Z,6.90
2023-03-29T06:13:10.834Z,6.92
2023-03-29T06:15:37.373Z,6.90
2023-03-29T06:18:04.565Z,7.00
2023-03-29T06:20:31.202Z,7.01
2023-03-29T06:22:58.399Z,7.02
2023-03-29T06:25:24.985Z,7.10
2023-03-29T06:27:52.193Z,7.16
2023-03-29T06:30:19.269Z,7.16
2023-03-29T06:32:46.167Z,7.18
2023-03-29T06:35:12.633Z,7.21
2023-03-29T06:37:41.149Z,7.24
2023-03-29T06:40:09.393Z,7.30
2023-03-29T06:42:35.838Z,7.31
2023-03-29T06:45:02.588Z,7.29
2023-03-29T06:47:31.384Z,7.28
2023-03-29T06:49:58.016Z,7.26
2023-03-29T06:52:24.420Z,7.36
2023-03-29T06:54:50.974Z,7.39
2023-03-29T06:57:17.751Z,7.37
2023-03-29T06:59:44.345Z,7.47
2023-03-29T07:02:12.544Z,7.49
2023-03-29T07:04:39.588Z,7.52
2023-03-29T07:07:07.691Z,7.54
2023-03-29T07:09:35.948Z,7.55
2023-03-29T07:12:02.423Z,7.55
2023-03-29T07:14:30.817Z,7.63
2023-03-29T07:17:00.724Z,7.67
2023-03-29T07:19:30.182Z,7.72
2023-03-29T07:21:56.995Z,7.77
2023-03-29T07:24:23.405Z,7.73
2023-03-29T07:27:03.181Z,7.82
2023-03-29T07:29:30.954Z,7.90
2023-03-29T07:31:57.492Z,7.94
2023-03-29T07:34:24.342Z,8.01
2023-03-29T07:36:51.514Z,8.07
2023-03-29T07:39:19.201Z,7.98
2023-03-29T07:41:45.958Z,8.12
2023-03-29T07:44:12.383Z,8.15
2023-03-29T07:46:39.188Z,8.21
2023-03-29T07:49:07.384Z,8.19
2023-03-29T07:51:33.886Z,8.34
2023-03-29T07:54:00.319Z,8.34
2023-03-29T07:56:26.981Z,8.42
2023-03-29T07:58:53.405Z,8.48
2023-03-29T08:01:20.878Z,8.45
2023-03-29T08:03:47.987Z,8.48
2023-03-29T08:06:16.093Z,8.54
2023-03-29T08:08:42.546Z,8.71
2023-03-29T08:11:10.071Z,8.77
2023-03-29T08:13:36.892Z,8.91
2023-03-29T08:16:03.354Z,8.97
2023-03-29T08:18:31.109Z,9.05
2023-03-29T08:20:58.675Z,9.15
2023-03-29T08:23:25.197Z,9.21
2023-03-29T08:25:52.156Z,9.22
2023-03-29T08:28:18.574Z,9.28
2023-03-29T08:30:45.578Z,9.30
2023-03-29T08:33:12.263Z,9.39
2023-03-29T08:35:38.756Z,9.50
2023-03-29T08:38:05.372Z,9.55
2023-03-29T08:40:31.946Z,9.63
2023-03-29T08:43:01.975Z,9.69
2023-03-29T08:45:35.484Z,9.76
2023-03-29T08:48:32.910Z,9.83
2023-03-29T08:51:10.108Z,9.86
2023-03-29T08:53:45.130Z,9.92
2023-03-29T08:56:16.766Z,9.95
2023-03-29T08:58:45.153Z,10.03
2023-03-29T09:01:11.870Z,10.08
2023-03-29T09:03:44.975Z,10.14
2023-03-29T09:06:13.907Z,10.22
2023-03-29T09:08:45.075Z,10.25
2023-03-29T09:11:23.792Z,10.28
2023-03-29T09:14:09.102Z,10.33
2023-03-29T09:16:55.259Z,10.28
2023-03-29T09:19:36.857Z,10.33
2023-03-29T09:22:16.074Z,10.39
2023-03-29T09:25:06.210Z,10.46
2023-03-29T09:27:51.029Z,10.54
2023-03-29T09:30:27.545Z,10.56
2023-03-29T09:33:09.139Z,10.70
2023-03-29T09:35:50.840Z,10.68
2023-03-29T09:38:18.604Z,10.67
2023-03-29T09:40:54.031Z,10.83
2023-03-29T09:43:31.440Z,10.86
2023-03-29T09:46:02.977Z,10.85
2023-03-29T09:48:34.778Z,10.88
2023-03-29T09:51:03.412Z,10.91
2023-03-29T09:53:30.378Z,10.86
2023-03-29T09:55:56.870Z,11.01
2023-03-29T09:58:27.494Z,11.00
2023-03-29T10:00:58.990Z,11.04
2023-03-29T10:03:28.416Z,11.14
2023-03-29T10:05:58.806Z,11.23
2023-03-29T10:08:38.637Z,11.17
2023-03-29T10:11:13.575Z,11.25
2023-03-29T10:13:54.916Z,11.38
2023-03-29T10:16:29.622Z,11.43
2023-03-29T10:18:56.504Z,11.40
2023-03-29T10:21:23.767Z,11.46
2023-03-29T10:23:58.222Z,11.53
2023-03-29T10:26:38.817Z,11.53
2023-03-29T10:29:08.242Z,11.64
2023-03-29T10:31:38.777Z,11.73
2023-03-29T10:34:06.921Z,11.80
2023-03-29T10:36:34.245Z,11.97
2023-03-29T10:39:05.560Z,12.14
2023-03-29T10:41:35.275Z,12.35
2023-03-29T10:44:02.575Z,12.49
2023-03-29T10:46:31.960Z,12.47
2023-03-29T10:49:05.978Z,12.50
2023-03-29T10:51:34.463Z,12.44
2023-03-29T10:54:02.276Z,12.49
2023-03-29T10:56:47.421Z,12.63
2023-03-29T10:59:24.160Z,12.57
2023-03-29T11:01:58.035Z,12.52
2023-03-29T11:04:46.661Z,12.35
2023-03-29T11:07:29.412Z,12.35
2023-03-29T11:10:14.645Z,12.28
2023-03-29T11:12:49.634Z,12.32
2023-03-29T11:15:34.220Z,12.48
2023-03-29T11:18:25.485Z,12.74
2023-03-29T11:21:12.473Z,13.00
2023-03-29T11:23:48.114Z,13.00
2023-03-29T11:26:22.483Z,13.11
2023-03-29T11:29:10.888Z,13.05
2023-03-29T11:32:18.933Z,13.37
2023-03-29T11:35:12.798Z,13.66
2023-03-29T11:38:07.201Z,13.73
2023-03-29T11:40:55.457Z,13.53
2023-03-29T11:43:37.619Z,13.42
2023-03-29T11:46:17.869Z,13.56
2023-03-29T11:48:55.518Z,13.51
2023-03-29T11:51:51.993Z,13.52
2023-03-29T11:54:28.576Z,13.39
2023-03-29T11:56:58.504Z,13.30
2023-03-29T11:59:32.619Z,13.48
2023-03-29T12:02:10.884Z,13.41
2023-03-29T12:04:46.361Z,13.49
2023-03-29T12:07:41.679Z,13.45
2023-03-29T12:10:21.178Z,13.33
2023-03-29T12:13:09.466Z,13.60
2023-03-29T12:15:45.560Z,13.96
2023-03-29T12:18:26.979Z,14.09
2023-03-29T12:21:00.550Z,14.26
2023-03-29T12:23:30.981Z,14.44
2023-03-29T12:26:17.581Z,14.44
2023-03-29T12:29:09.313Z,14.27
2023-03-29T12:31:38.710Z,14.24
2023-03-29T12:34:29.628Z,14.30
2023-03-29T12:37:05.634Z,14.43
2023-03-29T12:39:33.371Z,14.60
2023-03-29T12:42:17.608Z,14.73
2023-03-29T12:44:50.422Z,14.86
2023-03-29T12:47:21.407Z,14.95
2023-03-29T12:49:54.496Z,14.89
2023-03-29T12:52:27.127Z,15.11
2023-03-29T12:54:56.233Z,14.78
2023-03-29T12:57:37.708Z,14.82
2023-03-29T13:00:20.397Z,14.93
2023-03-29T13:03:03.330Z,15.16
2023-03-29T13:05:36.771Z,15.19
2023-03-29T13:08:26.221Z,15.11
2023-03-29T13:10:56.804Z,14.87
2023-03-29T13:13:50.324Z,14.86
2023-03-29T13:16:19.745Z,14.78
2023-03-29T13:19:01.787Z,14.72
2023-03-29T13:21:49.903Z,14.81
2023-03-29T13:24:39.130Z,14.92
2023-03-29T13:27:12.747Z,14.85
2023-03-29T13:29:55.733Z,14.88
2023-03-29T13:32:36.356Z,14.94
2023-03-29T13:35:41.635Z,14.95
2023-03-29T13:38:26.620Z,14.87
2023-03-29T13:40:53.096Z,15.01
2023-03-29T13:43:19.461Z,15.01
2023-03-29T13:46:16.581Z,15.11
2023-03-29T13:48:42.949Z,15.08
2023-03-29T13:51:18.563Z,15.02
2023-03-29T13:53:54.273Z,15.07
2023-03-29T13:56:34.097Z,15.18
2023-03-29T13:59:11.588Z,14.97
2023-03-29T14:01:48.350Z,14.99
2023-03-29T14:04:21.502Z,15.03
2023-03-29T14:06:53.079Z,15.02
2023-03-29T14:09:23.328Z,14.95
2023-03-29T14:11:51.037Z,14.97
2023-03-29T14:14:22.642Z,15.01
2023-03-29T14:16:49.425Z,15.06
2023-03-29T14:19:20.794Z,15.04
2023-03-29T14:21:51.184Z,15.15
2023-03-29T14:24:20.766Z,15.27
2023-03-29T14:26:47.807Z,15.27
2023-03-29T14:29:14.827Z,15.30
2023-03-29T14:31:42.580Z,15.24
2023-03-29T14:34:15.819Z,15.27
2023-03-29T14:36:45.363Z,15.31
2023-03-29T14:39:33.671Z,15.32
2023-03-29T14:42:00.511Z,15.34
2023-03-29T14:44:30.026Z,15.43
2023-03-29T14:46:56.941Z,15.29
2023-03-29T14:49:24.461Z,15.14
2023-03-29T14:51:52.382Z,15.31
2023-03-29T14:54:32.673Z,15.41
2023-03-29T14:57:00.076Z,15.47
2023-03-29T14:59:38.307Z,15.48
2023-03-29T15:02:21.675Z,15.46
2023-03-29T15:05:03.324Z,15.51
2023-03-29T15:07:31.430Z,15.51
2023-03-29T15:09:59.590Z,15.53
2023-03-29T15:12:30.210Z,15.51
2023-03-29T15:14:57.175Z,15.48
2023-03-29T15:17:50.103Z,15.52
2023-03-29T15:20:32.085Z,15.48
2023-03-29T15:23:01.413Z,15.54
2023-03-29T15:25:45.839Z,15.53
2023-03-29T15:28:34.188Z,15.57
2023-03-29T15:31:11.995Z,15.59
2023-03-29T15:33:41.016Z,15.64
2023-03-29T15:36:12.750Z,15.63
2023-03-29T15:38:44.720Z,15.64
2023-03-29T15:41:13.514Z,15.68
2023-03-29T15:43:41.207Z,15.68
2023-03-29T15:46:09.004Z,15.70
2023-03-29T15:48:35.497Z,15.72
2023-03-29T15:51:05.513Z,15.75
2023-03-29T15:53:33.249Z,15.82
2023-03-29T15:56:01.992Z,15.90
2023-03-29T15:58:31.653Z,15.94
2023-03-29T16:01:11.169Z,15.98
2023-03-29T16:03:38.892Z,16.02
2023-03-29T16:06:06.176Z,16.07
2023-03-29T16:08:32.688Z,16.03
2023-03-29T16:10:59.131Z,16.08
2023-03-29T16:13:25.562Z,16.08
2023-03-29T16:15:52.126Z,16.08
2023-03-29T16:18:18.524Z,16.15
2023-03-29T16:20:44.944Z,16.17
2023-03-29T16:23:12.011Z,16.22
2023-03-29T16:25:40.001Z,16.12
2023-03-29T16:28:08.418Z,16.12
2023-03-29T16:30:36.076Z,16.14
2023-03-29T16:33:08.374Z,16.11
2023-03-29T16:35:38.465Z,16.13
2023-03-29T16:38:05.951Z,16.10
2023-03-29T16:40:33.273Z,16.11
2023-03-29T16:43:00.183Z,16.02
2023-03-29T16:45:27.200Z,16.08
2023-03-29T16:47:54.480Z,16.05
2023-03-29T16:50:21.877Z,16.07
2023-03-29T16:52:49.176Z,16.10
2023-03-29T16:55:19.181Z,16.07
2023-03-29T16:57:47.209Z,16.06
2023-03-29T17:00:16.383Z,16.05
2023-03-29T17:02:43.979Z,16.02
2023-03-29T17:05:12.335Z,15.92
2023-03-29T17:07:39.363Z,15.97
2023-03-29T17:10:08.276Z,15.84
2023-03-29T17:12:35.143Z,15.79
2023-03-29T17:15:01.696Z,15.76
2023-03-29T17:17:28.236Z,15.78
2023-03-29T17:19:56.573Z,15.75
2023-03-29T17:22:24.297Z,15.72
2023-03-29T17:24:51.067Z,15.75
2023-03-29T17:27:18.262Z,15.71
2023-03-29T17:29:44.704Z,15.69
2023-03-29T17:32:11.181Z,15.65
2023-03-29T17:34:38.634Z,15.66
2023-03-29T17:37:05.270Z,15.64
2023-03-29T17:39:32.120Z,15.60
2023-03-29T17:41:58.589Z,15.59
2023-03-29T17:44:25.017Z,15.58
2023-03-29T17:46:51.526Z,15.54
2023-03-29T17:49:17.992Z,15.52
2023-03-29T17:51:44.444Z,15.45
2023-03-29T17:54:11.141Z,15.36
2023-03-29T17:56:37.834Z,15.38
2023-03-29T17:59:04.336Z,15.33
2023-03-29T18:01:30.915Z,15.31
2023-03-29T18:03:57.488Z,15.26
2023-03-29T18:06:24.000Z,15.25
2023-03-29T18:08:50.586Z,15.22
2023-03-29T18:11:22.352Z,15.23
2023-03-29T18:13:50.370Z,15.15
2023-03-29T18:16:17.777Z,15.21
2023-03-29T18:18:46.321Z,15.18
2023-03-29T18:21:16.838Z,15.12
2023-03-29T18:23:47.881Z,15.15
2023-03-29T18:26:16.085Z,15.09
2023-03-29T18:28:46.923Z,15.05
2023-03-29T18:31:13.956Z,15.02
2023-03-29T18:33:40.539Z,15.01
2023-03-29T18:36:10.804Z,14.95
2023-03-29T18:38:40.453Z,14.90
2023-03-29T18:41:08.581Z,14.81
2023-03-29T18:43:35.956Z,14.80
2023-03-29T18:46:03.201Z,14.71
2023-03-29T18:48:29.970Z,14.77
2023-03-29T18:50:57.780Z,14.80
2023-03-29T18:53:24.363Z,14.78
2023-03-29T18:55:50.918Z,14.71
2023-03-29T18:58:17.812Z,14.71
2023-03-29T19:00:44.710Z,14.71
2023-03-29T19:03:11.513Z,14.67
2023-03-29T19:05:39.256Z,14.69
2023-03-29T19:08:07.037Z,14.67
2023-03-29T19:10:38.212Z,14.62
2023-03-29T19:13:05.461Z,14.58
2023-03-29T19:15:32.446Z,14.59
2023-03-29T19:17:59.138Z,14.51
2023-03-29T19:20:25.713Z,14.55
2023-03-29T19:22:52.639Z,14.54
2023-03-29T19:25:19.460Z,14.50
2023-03-29T19:27:46.383Z,14.48
2023-03-29T19:30:14.227Z,14.42
2023-03-29T19:32:40.726Z,14.41
2023-03-29T19:35:09.831Z,14.45
2023-03-29T19:37:36.504Z,14.42
2023-03-29T19:40:06.446Z,14.43
2023-03-29T19:42:36.194Z,14.41
2023-03-29T19:45:03.932Z,14.35
2023-03-29T19:47:30.573Z,14.37
2023-03-29T19:49:58.530Z,14.32
2023-03-29T19:52:27.780Z,14.32
2023-03-29T19:54:58.537Z,14.28
2023-03-29T19:57:39.212Z,14.27
2023-03-29T20:00:14.113Z,14.27
2023-03-29T20:02:42.365Z,14.27
2023-03-29T20:05:09.215Z,14.26
2023-03-29T20:07:36.378Z,14.21
2023-03-29T20:10:02.951Z,14.21
2023-03-29T20:12:29.432Z,14.20
2023-03-29T20:14:55.907Z,14.19
2023-03-29T20:17:22.388Z,14.16
2023-03-29T20:19:48.801Z,14.14
2023-03-29T20:22:15.268Z,14.12
2023-03-29T20:24:41.714Z,14.09
2023-03-29T20:27:08.656Z,14.12
2023-03-29T20:29:35.482Z,14.12
2023-03-29T20:32:02.146Z,14.04
2023-03-29T20:34:28.850Z,14.10
2023-03-29T20:36:55.522Z,14.07
2023-03-29T20:39:25.639Z,14.03
2023-03-29T20:41:52.420Z,14.02
2023-03-29T20:44:18.919Z,13.98
2023-03-29T20:47:02.090Z,13.96
2023-03-29T20:49:42.127Z,13.94
2023-03-29T20:52:18.035Z,13.90
2023-03-29T20:54:45.257Z,13.79
2023-03-29T20:57:14.619Z,13.78
2023-03-29T20:59:42.846Z,13.67
2023-03-29T21:02:16.582Z,13.59
2023-03-29T21:04:44.109Z,13.54
2023-03-29T21:07:11.105Z,13.40
2023-03-29T21:09:37.726Z,13.37
2023-03-29T21:12:04.208Z,13.33
2023-03-29T21:14:33.243Z,13.29
2023-03-29T21:16:59.932Z,13.21
2023-03-29T21:19:26.554Z,13.11
2023-03-29T21:21:54.976Z,13.12
2023-03-29T21:24:21.790Z,13.05
2023-03-29T21:26:48.266Z,13.04
2023-03-29T21:29:14.754Z,13.01
2023-03-29T21:31:41.520Z,12.96
2023-03-29T21:34:08.100Z,12.94
2023-03-29T21:36:35.006Z,12.84
2023-03-29T21:39:01.470Z,12.83
2023-03-29T21:41:27.927Z,12.82
2023-03-29T21:43:54.384Z,12.72
2023-03-29T21:46:20.997Z,12.74
2023-03-29T21:48:47.730Z,12.65
2023-03-29T21:51:14.245Z,12.67
2023-03-29T21:53:41.022Z,12.62
2023-03-29T21:56:08.348Z,12.49
2023-03-29T21:58:34.922Z,12.52
2023-03-29T22:01:03.807Z,12.50
2023-03-29T22:03:31.343Z,12.52
2023-03-29T22:05:59.933Z,12.61
2023-03-29T22:08:26.739Z,12.67
2023-03-29T22:10:58.142Z,12.69
2023-03-29T22:13:26.066Z,12.70
2023-03-29T22:16:00.306Z,12.71
2023-03-29T22:18:30.070Z,12.65
2023-03-29T22:20:57.122Z,12.67
2023-03-29T22:23:24.877Z,12.69
2023-03-29T22:25:51.467Z,12.69
2023-03-29T22:28:18.040Z,12.65
2023-03-29T22:30:44.565Z,12.72
2023-03-29T22:33:11.105Z,12.79
2023-03-29T22:35:37.603Z,12.82
2023-03-29T22:38:04.256Z,12.85
2023-03-29T22:40:33.170Z,12.87
2023-03-29T22:42:59.906Z,12.91
2023-03-29T22:45:26.309Z,12.97
2023-03-29T22:47:52.774Z,13.00
2023-03-29T22:50:19.281Z,12.94
2023-03-29T22:52:46.012Z,12.93
2023-03-29T22:55:12.456Z,12.92
2023-03-29T22:57:38.876Z,12.75
2023-03-29T23:00:09.031Z,12.95
2023-03-29T23:02:36.505Z,13.01
2023-03-29T23:05:02.987Z,13.02
2023-03-29T23:07:29.528Z,12.99
2023-03-29T23:09:56.206Z,13.03
2023-03-29T23:12:24.180Z,13.02
2023-03-29T23:14:52.860Z,13.03
2023-03-29T23:17:19.318Z,13.05
2023-03-29T23:19:45.901Z,13.08
2023-03-29T23:22:12.285Z,13.14
2023-03-29T23:24:38.774Z,13.10
2023-03-29T23:27:05.552Z,13.08
2023-03-29T23:29:32.064Z,13.06
2023-03-29T23:31:59.579Z,12.92
2023-03-29T23:34:25.991Z,13.04
2023-03-29T23:36:52.416Z,13.01
2023-03-29T23:39:18.855Z,13.01
2023-03-29T23:41:45.547Z,12.97
2023-03-29T23:44:11.988Z,12.94
2023-03-29T23:46:38.479Z,12.89
2023-03-29T23:49:04.957Z,12.91
2023-03-29T23:51:31.365Z,12.87
2023-03-29T23:53:57.804Z,12.81
2023-03-29T23:56:24.320Z,12.74
2023-03-29T23:58:51.026Z,12.68
